sensor_id;sensor_type;location;lat;lon;timestamp;pressure;altitude;pressure_sealevel;temperature;humidity
70971;BME280;58632;51.718;19.446;2023-02-11T00:00:41;100957.41;;;1.13;100.00
70971;BME280;58632;51.718;19.446;2023-02-11T00:03:22;100944.92;;;1.12;100.00
70971;BME280;58632;51.718;19.446;2023-02-11T00:05:58;100936.81;;;1.13;100.00
70971;BME280;58632;51.718;19.446;2023-02-11T00:08:24;100935.44;;;1.16;100.00
70971;BME280;58632;51.718;19.446;2023-02-11T00:10:51;100937.38;;;1.19;100.00
70971;BME280;58632;51.718;19.446;2023-02-11T00:13:16;100939.02;;;1.20;100.00
70971;BME280;58632;51.718;19.446;2023-02-11T00:15:42;100941.47;;;1.21;100.00
70971;BME280;58632;51.718;19.446;2023-02-11T00:18:07;100946.00;;;1.18;100.00
70971;BME280;58632;51.718;19.446;2023-02-11T00:20:33;100945.67;;;1.18;100.00
70971;BME280;58632;51.718;19.446;2023-02-11T00:22:59;100938.41;;;1.15;100.00
70971;BME280;58632;51.718;19.446;2023-02-11T00:25:24;100941.29;;;1.14;100.00
70971;BME280;58632;51.718;19.446;2023-02-11T00:27:50;100944.49;;;1.16;100.00
70971;BME280;58632;51.718;19.446;2023-02-11T00:30:16;100936.83;;;1.18;100.00
70971;BME280;58632;51.718;19.446;2023-02-11T00:32:41;100933.59;;;1.18;100.00
70971;BME280;58632;51.718;19.446;2023-02-11T00:35:07;100928.41;;;1.14;100.00
70971;BME280;58632;51.718;19.446;2023-02-11T00:37:32;100926.14;;;1.12;100.00
70971;BME280;58632;51.718;19.446;2023-02-11T00:40:01;100926.92;;;1.09;100.00
70971;BME280;58632;51.718;19.446;2023-02-11T00:42:27;100932.56;;;1.06;100.00
70971;BME280;58632;51.718;19.446;2023-02-11T00:44:52;100922.73;;;1.07;100.00
70971;BME280;58632;51.718;19.446;2023-02-11T00:47:18;100916.66;;;1.04;100.00
70971;BME280;58632;51.718;19.446;2023-02-11T00:49:44;100911.48;;;0.98;100.00
70971;BME280;58632;51.718;19.446;2023-02-11T00:52:09;100909.33;;;0.95;100.00
70971;BME280;58632;51.718;19.446;2023-02-11T00:54:35;100905.52;;;0.95;100.00
70971;BME280;58632;51.718;19.446;2023-02-11T00:57:00;100908.10;;;0.94;100.00
70971;BME280;58632;51.718;19.446;2023-02-11T00:59:26;100903.67;;;0.96;100.00
70971;BME280;58632;51.718;19.446;2023-02-11T01:01:52;100904.45;;;0.99;100.00
70971;BME280;58632;51.718;19.446;2023-02-11T01:04:17;100898.58;;;1.01;100.00
70971;BME280;58632;51.718;19.446;2023-02-11T01:06:43;100884.80;;;1.03;100.00
70971;BME280;58632;51.718;19.446;2023-02-11T01:09:09;100876.62;;;1.01;100.00
70971;BME280;58632;51.718;19.446;2023-02-11T01:11:34;100867.99;;;0.97;100.00
70971;BME280;58632;51.718;19.446;2023-02-11T01:14:00;100855.66;;;0.94;100.00
70971;BME280;58632;51.718;19.446;2023-02-11T01:16:26;100843.22;;;0.90;100.00
70971;BME280;58632;51.718;19.446;2023-02-11T01:18:51;100841.50;;;0.92;100.00
70971;BME280;58632;51.718;19.446;2023-02-11T01:21:17;100842.02;;;0.94;100.00
70971;BME280;58632;51.718;19.446;2023-02-11T01:23:43;100826.55;;;0.92;100.00
70971;BME280;58632;51.718;19.446;2023-02-11T01:26:09;100825.33;;;0.89;100.00
70971;BME280;58632;51.718;19.446;2023-02-11T01:28:34;100815.27;;;0.85;100.00
70971;BME280;58632;51.718;19.446;2023-02-11T01:31:00;100803.63;;;0.81;100.00
70971;BME280;58632;51.718;19.446;2023-02-11T01:33:26;100796.90;;;0.79;100.00
70971;BME280;58632;51.718;19.446;2023-02-11T01:35:51;100787.80;;;0.80;100.00
70971;BME280;58632;51.718;19.446;2023-02-11T01:38:19;100784.28;;;0.77;100.00
70971;BME280;58632;51.718;19.446;2023-02-11T01:40:46;100775.80;;;0.72;100.00
70971;BME280;58632;51.718;19.446;2023-02-11T01:43:12;100777.00;;;0.68;100.00
70971;BME280;58632;51.718;19.446;2023-02-11T01:45:48;100783.07;;;0.70;100.00
70971;BME280;58632;51.718;19.446;2023-02-11T01:48:24;100785.33;;;0.73;100.00
70971;BME280;58632;51.718;19.446;2023-02-11T01:50:53;100779.79;;;0.73;100.00
70971;BME280;58632;51.718;19.446;2023-02-11T01:53:21;100785.05;;;0.73;100.00
70971;BME280;58632;51.718;19.446;2023-02-11T01:56:05;100786.38;;;0.73;100.00
70971;BME280;58632;51.718;19.446;2023-02-11T01:58:50;100776.90;;;0.71;100.00
70971;BME280;58632;51.718;19.446;2023-02-11T02:01:18;100777.67;;;0.72;100.00
70971;BME280;58632;51.718;19.446;2023-02-11T02:03:47;100765.66;;;0.76;100.00
70971;BME280;58632;51.718;19.446;2023-02-11T02:06:22;100750.95;;;0.77;100.00
70971;BME280;58632;51.718;19.446;2023-02-11T02:08:51;100743.72;;;0.76;100.00
70971;BME280;58632;51.718;19.446;2023-02-11T02:11:19;100740.39;;;0.75;100.00
70971;BME280;58632;51.718;19.446;2023-02-11T02:13:44;100736.59;;;0.74;100.00
70971;BME280;58632;51.718;19.446;2023-02-11T02:16:11;100737.39;;;0.73;100.00
70971;BME280;58632;51.718;19.446;2023-02-11T02:26:10;100707.21;;;0.76;100.00
70971;BME280;58632;51.718;19.446;2023-02-11T02:31:31;100694.06;;;0.72;100.00
70971;BME280;58632;51.718;19.446;2023-02-11T02:34:08;100689.55;;;0.69;100.00
70971;BME280;58632;51.718;19.446;2023-02-11T02:36:46;100687.54;;;0.68;100.00
70971;BME280;58632;51.718;19.446;2023-02-11T02:39:28;100681.34;;;0.67;100.00
70971;BME280;58632;51.718;19.446;2023-02-11T02:41:56;100676.71;;;0.66;100.00
70971;BME280;58632;51.718;19.446;2023-02-11T02:44:22;100683.05;;;0.64;100.00
70971;BME280;58632;51.718;19.446;2023-02-11T02:46:50;100680.79;;;0.62;100.00
70971;BME280;58632;51.718;19.446;2023-02-11T02:49:16;100682.19;;;0.61;100.00
70971;BME280;58632;51.718;19.446;2023-02-11T03:02:05;100707.91;;;0.67;100.00
70971;BME280;58632;51.718;19.446;2023-02-11T03:07:02;100715.49;;;0.68;100.00
70971;BME280;58632;51.718;19.446;2023-02-11T03:09:31;100713.16;;;0.68;100.00
70971;BME280;58632;51.718;19.446;2023-02-11T03:11:59;100707.06;;;0.68;100.00
70971;BME280;58632;51.718;19.446;2023-02-11T03:14:26;100676.05;;;0.65;100.00
70971;BME280;58632;51.718;19.446;2023-02-11T03:16:53;100627.23;;;0.64;100.00
70971;BME280;58632;51.718;19.446;2023-02-11T03:19:21;100589.05;;;0.60;100.00
70971;BME280;58632;51.718;19.446;2023-02-11T03:21:48;100580.59;;;0.56;100.00
70971;BME280;58632;51.718;19.446;2023-02-11T03:24:18;100584.02;;;0.53;100.00
70971;BME280;58632;51.718;19.446;2023-02-11T03:26:48;100606.41;;;0.51;100.00
70971;BME280;58632;51.718;19.446;2023-02-11T03:29:17;100618.20;;;0.50;100.00
70971;BME280;58632;51.718;19.446;2023-02-11T03:32:31;100609.75;;;0.54;100.00
70971;BME280;58632;51.718;19.446;2023-02-11T03:34:41;100610.86;;;0.57;100.00
70971;BME280;58632;51.718;19.446;2023-02-11T03:37:17;100608.38;;;0.57;100.00
70971;BME280;58632;51.718;19.446;2023-02-11T03:39:52;100615.11;;;0.55;100.00
70971;BME280;58632;51.718;19.446;2023-02-11T03:42:19;100617.67;;;0.53;100.00
70971;BME280;58632;51.718;19.446;2023-02-11T03:44:49;100614.86;;;0.51;100.00
70971;BME280;58632;51.718;19.446;2023-02-11T03:47:17;100618.33;;;0.49;100.00
70971;BME280;58632;51.718;19.446;2023-02-11T03:49:45;100612.76;;;0.50;100.00
70971;BME280;58632;51.718;19.446;2023-02-11T03:52:13;100610.84;;;0.49;100.00
70971;BME280;58632;51.718;19.446;2023-02-11T03:54:41;100609.34;;;0.44;100.00
70971;BME280;58632;51.718;19.446;2023-02-11T03:57:07;100604.78;;;0.44;100.00
70971;BME280;58632;51.718;19.446;2023-02-11T03:59:48;100597.25;;;0.41;100.00
70971;BME280;58632;51.718;19.446;2023-02-11T04:02:13;100580.19;;;0.35;100.00
70971;BME280;58632;51.718;19.446;2023-02-11T04:04:39;100570.73;;;0.31;100.00
70971;BME280;58632;51.718;19.446;2023-02-11T04:07:05;100566.47;;;0.31;100.00
70971;BME280;58632;51.718;19.446;2023-02-11T04:09:30;100553.38;;;0.31;100.00
70971;BME280;58632;51.718;19.446;2023-02-11T04:11:56;100542.05;;;0.29;100.00
70971;BME280;58632;51.718;19.446;2023-02-11T04:14:22;100543.16;;;0.25;100.00
70971;BME280;58632;51.718;19.446;2023-02-11T04:16:48;100557.48;;;0.22;100.00
70971;BME280;58632;51.718;19.446;2023-02-11T04:19:13;100557.63;;;0.19;100.00
70971;BME280;58632;51.718;19.446;2023-02-11T04:21:39;100549.20;;;0.16;100.00
70971;BME280;58632;51.718;19.446;2023-02-11T04:24:04;100538.78;;;0.13;100.00
70971;BME280;58632;51.718;19.446;2023-02-11T04:26:30;100525.80;;;0.13;100.00
70971;BME280;58632;51.718;19.446;2023-02-11T04:28:55;100523.91;;;0.12;100.00
70971;BME280;58632;51.718;19.446;2023-02-11T04:31:21;100514.44;;;0.11;100.00
70971;BME280;58632;51.718;19.446;2023-02-11T04:33:47;100512.72;;;0.08;100.00
70971;BME280;58632;51.718;19.446;2023-02-11T04:36:12;100515.05;;;0.04;100.00
70971;BME280;58632;51.718;19.446;2023-02-11T04:38:38;100507.52;;;-0.03;100.00
70971;BME280;58632;51.718;19.446;2023-02-11T04:41:06;100503.30;;;-0.06;100.00
70971;BME280;58632;51.718;19.446;2023-02-11T04:43:31;100495.05;;;-0.05;100.00
70971;BME280;58632;51.718;19.446;2023-02-11T04:45:57;100487.63;;;-0.04;100.00
70971;BME280;58632;51.718;19.446;2023-02-11T04:48:23;100481.79;;;-0.05;100.00
70971;BME280;58632;51.718;19.446;2023-02-11T04:50:48;100468.20;;;-0.08;100.00
70971;BME280;58632;51.718;19.446;2023-02-11T04:53:14;100463.84;;;-0.10;100.00
70971;BME280;58632;51.718;19.446;2023-02-11T04:55:40;100471.16;;;-0.15;100.00
70971;BME280;58632;51.718;19.446;2023-02-11T04:58:05;100484.15;;;-0.16;100.00
70971;BME280;58632;51.718;19.446;2023-02-11T05:00:31;100486.19;;;-0.17;100.00
70971;BME280;58632;51.718;19.446;2023-02-11T05:02:56;100487.41;;;-0.17;100.00
70971;BME280;58632;51.718;19.446;2023-02-11T05:05:22;100488.67;;;-0.17;100.00
70971;BME280;58632;51.718;19.446;2023-02-11T05:07:47;100489.89;;;-0.15;100.00
70971;BME280;58632;51.718;19.446;2023-02-11T05:10:13;100489.09;;;-0.12;100.00
70971;BME280;58632;51.718;19.446;2023-02-11T05:12:39;100486.54;;;-0.09;100.00
70971;BME280;58632;51.718;19.446;2023-02-11T05:15:04;100486.13;;;-0.01;100.00
70971;BME280;58632;51.718;19.446;2023-02-11T05:17:30;100484.85;;;0.07;100.00
70971;BME280;58632;51.718;19.446;2023-02-11T05:19:55;100488.01;;;0.13;100.00
70971;BME280;58632;51.718;19.446;2023-02-11T05:22:21;100482.58;;;0.18;100.00
70971;BME280;58632;51.718;19.446;2023-02-11T05:24:47;100478.11;;;0.24;100.00
70971;BME280;58632;51.718;19.446;2023-02-11T05:27:12;100469.09;;;0.26;100.00
70971;BME280;58632;51.718;19.446;2023-02-11T05:29:38;100464.42;;;0.29;100.00
70971;BME280;58632;51.718;19.446;2023-02-11T05:32:03;100459.70;;;0.33;100.00
70971;BME280;58632;51.718;19.446;2023-02-11T05:34:29;100454.13;;;0.34;100.00
70971;BME280;58632;51.718;19.446;2023-02-11T05:36:55;100463.17;;;0.33;100.00
70971;BME280;58632;51.718;19.446;2023-02-11T05:39:20;100463.39;;;0.34;100.00
70971;BME280;58632;51.718;19.446;2023-02-11T05:41:46;100453.41;;;0.36;100.00
70971;BME280;58632;51.718;19.446;2023-02-11T05:44:11;100445.48;;;0.41;100.00
70971;BME280;58632;51.718;19.446;2023-02-11T05:46:37;100446.20;;;0.45;100.00
70971;BME280;58632;51.718;19.446;2023-02-11T05:49:03;100441.55;;;0.47;100.00
70971;BME280;58632;51.718;19.446;2023-02-11T05:51:28;100443.37;;;0.49;100.00
70971;BME280;58632;51.718;19.446;2023-02-11T05:53:54;100437.92;;;0.48;100.00
70971;BME280;58632;51.718;19.446;2023-02-11T05:56:20;100434.39;;;0.47;100.00
70971;BME280;58632;51.718;19.446;2023-02-11T05:58:45;100432.88;;;0.49;100.00
70971;BME280;58632;51.718;19.446;2023-02-11T06:01:11;100434.91;;;0.54;100.00
70971;BME280;58632;51.718;19.446;2023-02-11T06:03:36;100432.85;;;0.56;100.00
70971;BME280;58632;51.718;19.446;2023-02-11T06:06:02;100426.15;;;0.58;100.00
70971;BME280;58632;51.718;19.446;2023-02-11T06:08:28;100428.67;;;0.60;100.00
70971;BME280;58632;51.718;19.446;2023-02-11T06:10:53;100427.52;;;0.62;100.00
70971;BME280;58632;51.718;19.446;2023-02-11T06:13:19;100426.77;;;0.62;100.00
70971;BME280;58632;51.718;19.446;2023-02-11T06:15:44;100425.91;;;0.62;100.00
70971;BME280;58632;51.718;19.446;2023-02-11T06:18:19;100418.80;;;0.66;100.00
70971;BME280;58632;51.718;19.446;2023-02-11T06:20:44;100424.16;;;0.70;100.00
70971;BME280;58632;51.718;19.446;2023-02-11T06:23:10;100429.47;;;0.71;100.00
70971;BME280;58632;51.718;19.446;2023-02-11T06:25:35;100418.98;;;0.73;100.00
70971;BME280;58632;51.718;19.446;2023-02-11T06:28:01;100416.44;;;0.75;100.00
70971;BME280;58632;51.718;19.446;2023-02-11T06:30:27;100416.70;;;0.78;100.00
70971;BME280;58632;51.718;19.446;2023-02-11T06:32:52;100408.47;;;0.85;100.00
70971;BME280;58632;51.718;19.446;2023-02-11T06:35:19;100413.67;;;0.92;100.00
70971;BME280;58632;51.718;19.446;2023-02-11T06:37:44;100410.48;;;0.95;100.00
70971;BME280;58632;51.718;19.446;2023-02-11T06:40:11;100412.45;;;0.99;100.00
70971;BME280;58632;51.718;19.446;2023-02-11T06:42:36;100402.35;;;1.02;100.00
70971;BME280;58632;51.718;19.446;2023-02-11T06:45:06;100401.14;;;1.07;100.00
70971;BME280;58632;51.718;19.446;2023-02-11T06:47:33;100394.93;;;1.13;100.00
70971;BME280;58632;51.718;19.446;2023-02-11T06:49:59;100393.45;;;1.18;100.00
70971;BME280;58632;51.718;19.446;2023-02-11T06:52:24;100391.16;;;1.20;100.00
70971;BME280;58632;51.718;19.446;2023-02-11T06:54:50;100393.27;;;1.21;100.00
70971;BME280;58632;51.718;19.446;2023-02-11T06:57:16;100385.75;;;1.22;100.00
70971;BME280;58632;51.718;19.446;2023-02-11T06:59:41;100393.21;;;1.23;100.00
70971;BME280;58632;51.718;19.446;2023-02-11T07:02:08;100391.95;;;1.29;100.00
70971;BME280;58632;51.718;19.446;2023-02-11T07:04:33;100389.06;;;1.34;100.00
70971;BME280;58632;51.718;19.446;2023-02-11T07:06:59;100378.06;;;1.38;100.00
70971;BME280;58632;51.718;19.446;2023-02-11T07:09:24;100367.15;;;1.41;100.00
70971;BME280;58632;51.718;19.446;2023-02-11T07:11:50;100364.81;;;1.41;100.00
70971;BME280;58632;51.718;19.446;2023-02-11T07:14:16;100369.29;;;1.42;100.00
70971;BME280;58632;51.718;19.446;2023-02-11T07:16:42;100358.54;;;1.46;100.00
70971;BME280;58632;51.718;19.446;2023-02-11T07:19:07;100357.45;;;1.53;100.00
70971;BME280;58632;51.718;19.446;2023-02-11T07:21:33;100364.33;;;1.58;100.00
70971;BME280;58632;51.718;19.446;2023-02-11T07:23:58;100370.03;;;1.64;100.00
70971;BME280;58632;51.718;19.446;2023-02-11T07:26:24;100364.36;;;1.68;100.00
70971;BME280;58632;51.718;19.446;2023-02-11T07:28:50;100355.83;;;1.72;100.00
70971;BME280;58632;51.718;19.446;2023-02-11T07:31:17;100359.34;;;1.76;100.00
70971;BME280;58632;51.718;19.446;2023-02-11T07:33:43;100360.46;;;1.84;100.00
70971;BME280;58632;51.718;19.446;2023-02-11T07:36:10;100367.20;;;1.87;100.00
70971;BME280;58632;51.718;19.446;2023-02-11T07:38:36;100383.73;;;1.87;100.00
70971;BME280;58632;51.718;19.446;2023-02-11T07:41:03;100385.88;;;1.85;100.00
70971;BME280;58632;51.718;19.446;2023-02-11T07:43:29;100386.95;;;1.82;100.00
70971;BME280;58632;51.718;19.446;2023-02-11T07:45:55;100389.77;;;1.77;100.00
70971;BME280;58632;51.718;19.446;2023-02-11T07:48:20;100392.73;;;1.73;100.00
70971;BME280;58632;51.718;19.446;2023-02-11T07:50:46;100391.37;;;1.73;100.00
70971;BME280;58632;51.718;19.446;2023-02-11T07:53:12;100391.92;;;1.73;100.00
70971;BME280;58632;51.718;19.446;2023-02-11T07:55:37;100388.91;;;1.71;100.00
70971;BME280;58632;51.718;19.446;2023-02-11T07:58:03;100390.79;;;1.70;100.00
70971;BME280;58632;51.718;19.446;2023-02-11T08:00:28;100380.81;;;1.71;100.00
70971;BME280;58632;51.718;19.446;2023-02-11T08:02:55;100374.36;;;1.73;100.00
70971;BME280;58632;51.718;19.446;2023-02-11T08:05:21;100373.83;;;1.78;100.00
70971;BME280;58632;51.718;19.446;2023-02-11T08:07:49;100372.50;;;1.83;100.00
70971;BME280;58632;51.718;19.446;2023-02-11T08:10:15;100364.33;;;1.86;100.00
70971;BME280;58632;51.718;19.446;2023-02-11T08:12:41;100363.16;;;1.88;100.00
70971;BME280;58632;51.718;19.446;2023-02-11T08:15:06;100359.64;;;1.86;100.00
70971;BME280;58632;51.718;19.446;2023-02-11T08:17:33;100357.49;;;1.84;100.00
70971;BME280;58632;51.718;19.446;2023-02-11T08:19:59;100363.77;;;1.84;100.00
70971;BME280;58632;51.718;19.446;2023-02-11T08:22:25;100363.58;;;1.91;100.00
70971;BME280;58632;51.718;19.446;2023-02-11T08:24:51;100366.23;;;1.92;100.00
70971;BME280;58632;51.718;19.446;2023-02-11T08:27:16;100366.95;;;1.94;100.00
70971;BME280;58632;51.718;19.446;2023-02-11T08:29:42;100364.23;;;1.99;100.00
70971;BME280;58632;51.718;19.446;2023-02-11T08:32:08;100361.02;;;2.05;100.00
70971;BME280;58632;51.718;19.446;2023-02-11T08:34:34;100364.36;;;2.19;100.00
70971;BME280;58632;51.718;19.446;2023-02-11T08:37:00;100368.42;;;2.28;100.00
70971;BME280;58632;51.718;19.446;2023-02-11T08:39:26;100364.07;;;2.32;100.00
70971;BME280;58632;51.718;19.446;2023-02-11T08:41:53;100358.47;;;2.29;100.00
70971;BME280;58632;51.718;19.446;2023-02-11T08:44:19;100348.36;;;2.28;100.00
70971;BME280;58632;51.718;19.446;2023-02-11T08:46:44;100347.91;;;2.28;100.00
70971;BME280;58632;51.718;19.446;2023-02-11T08:49:10;100347.96;;;2.23;100.00
70971;BME280;58632;51.718;19.446;2023-02-11T08:51:35;100346.64;;;2.24;100.00
70971;BME280;58632;51.718;19.446;2023-02-11T08:54:02;100341.92;;;2.24;100.00
70971;BME280;58632;51.718;19.446;2023-02-11T08:56:28;100341.54;;;2.23;100.00
70971;BME280;58632;51.718;19.446;2023-02-11T08:58:55;100340.44;;;2.17;100.00
70971;BME280;58632;51.718;19.446;2023-02-11T09:01:26;100337.23;;;2.15;100.00
70971;BME280;58632;51.718;19.446;2023-02-11T09:03:51;100324.16;;;2.19;100.00
70971;BME280;58632;51.718;19.446;2023-02-11T09:06:17;100329.91;;;2.26;100.00
70971;BME280;58632;51.718;19.446;2023-02-11T09:08:43;100328.85;;;2.39;100.00
70971;BME280;58632;51.718;19.446;2023-02-11T09:11:09;100324.14;;;2.43;100.00
70971;BME280;58632;51.718;19.446;2023-02-11T09:13:35;100315.21;;;2.43;100.00
70971;BME280;58632;51.718;19.446;2023-02-11T09:16:01;100307.59;;;2.41;100.00
70971;BME280;58632;51.718;19.446;2023-02-11T09:18:27;100293.11;;;2.37;100.00
70971;BME280;58632;51.718;19.446;2023-02-11T09:21:00;100292.98;;;2.37;100.00
70971;BME280;58632;51.718;19.446;2023-02-11T09:23:26;100292.30;;;2.37;100.00
70971;BME280;58632;51.718;19.446;2023-02-11T09:25:52;100280.83;;;2.36;100.00
70971;BME280;58632;51.718;19.446;2023-02-11T09:28:18;100281.36;;;2.35;100.00
70971;BME280;58632;51.718;19.446;2023-02-11T09:30:46;100269.83;;;2.33;100.00
70971;BME280;58632;51.718;19.446;2023-02-11T09:33:11;100263.36;;;2.31;100.00
70971;BME280;58632;51.718;19.446;2023-02-11T09:35:37;100248.10;;;2.35;100.00
70971;BME280;58632;51.718;19.446;2023-02-11T09:38:02;100239.52;;;2.37;100.00
70971;BME280;58632;51.718;19.446;2023-02-11T09:40:28;100245.62;;;2.35;100.00
70971;BME280;58632;51.718;19.446;2023-02-11T09:45:26;100243.41;;;2.30;100.00
70971;BME280;58632;51.718;19.446;2023-02-11T09:48:14;100234.25;;;2.26;100.00
70971;BME280;58632;51.718;19.446;2023-02-11T09:50:50;100222.96;;;2.28;100.00
70971;BME280;58632;51.718;19.446;2023-02-11T09:53:26;100226.94;;;2.31;100.00
70971;BME280;58632;51.718;19.446;2023-02-11T09:56:08;100224.16;;;2.30;100.00
70971;BME280;58632;51.718;19.446;2023-02-11T09:58:35;100225.30;;;2.23;100.00
70971;BME280;58632;51.718;19.446;2023-02-11T10:01:11;100229.74;;;2.19;100.00
70971;BME280;58632;51.718;19.446;2023-02-11T10:19:24;100267.21;;;2.17;100.00
70971;BME280;58632;51.718;19.446;2023-02-11T10:22:11;100268.13;;;2.16;100.00
70971;BME280;58632;51.718;19.446;2023-02-11T10:24:39;100268.77;;;2.20;100.00
70971;BME280;58632;51.718;19.446;2023-02-11T10:27:26;100270.40;;;2.21;100.00
70971;BME280;58632;51.718;19.446;2023-02-11T10:29:58;100265.14;;;2.24;100.00
70971;BME280;58632;51.718;19.446;2023-02-11T10:32:32;100252.20;;;2.27;100.00
70971;BME280;58632;51.718;19.446;2023-02-11T10:35:01;100245.66;;;2.27;100.00
70971;BME280;58632;51.718;19.446;2023-02-11T10:37:28;100240.91;;;2.29;100.00
70971;BME280;58632;51.718;19.446;2023-02-11T10:39:54;100238.17;;;2.31;100.00
70971;BME280;58632;51.718;19.446;2023-02-11T10:42:19;100226.88;;;2.37;100.00
70971;BME280;58632;51.718;19.446;2023-02-11T10:45:02;100218.02;;;2.37;100.00
70971;BME280;58632;51.718;19.446;2023-02-11T10:47:29;100220.01;;;2.29;100.00
70971;BME280;58632;51.718;19.446;2023-02-11T10:49:57;100220.61;;;2.24;100.00
70971;BME280;58632;51.718;19.446;2023-02-11T10:52:28;100212.09;;;2.27;100.00
70971;BME280;58632;51.718;19.446;2023-02-11T10:55:05;100217.13;;;2.35;100.00
70971;BME280;58632;51.718;19.446;2023-02-11T10:57:57;100234.80;;;2.39;100.00
70971;BME280;58632;51.718;19.446;2023-02-11T11:00:34;100223.28;;;2.40;100.00
70971;BME280;58632;51.718;19.446;2023-02-11T11:03:01;100213.97;;;2.37;100.00
70971;BME280;58632;51.718;19.446;2023-02-11T11:05:29;100213.98;;;2.35;100.00
70971;BME280;58632;51.718;19.446;2023-02-11T11:07:57;100218.52;;;2.33;100.00
70971;BME280;58632;51.718;19.446;2023-02-11T11:12:51;100223.64;;;2.31;100.00
70971;BME280;58632;51.718;19.446;2023-02-11T11:15:21;100210.87;;;2.30;100.00
70971;BME280;58632;51.718;19.446;2023-02-11T11:18:07;100204.33;;;2.29;100.00
70971;BME280;58632;51.718;19.446;2023-02-11T11:20:33;100176.53;;;2.28;100.00
70971;BME280;58632;51.718;19.446;2023-02-11T11:23:17;100178.27;;;2.27;100.00
70971;BME280;58632;51.718;19.446;2023-02-11T11:25:45;100194.75;;;2.27;100.00
70971;BME280;58632;51.718;19.446;2023-02-11T11:28:24;100173.83;;;2.27;100.00
70971;BME280;58632;51.718;19.446;2023-02-11T11:30:51;100166.41;;;2.26;100.00
70971;BME280;58632;51.718;19.446;2023-02-11T11:33:19;100186.38;;;2.27;100.00
70971;BME280;58632;51.718;19.446;2023-02-11T11:35:53;100174.97;;;2.28;100.00
70971;BME280;58632;51.718;19.446;2023-02-11T11:38:20;100147.83;;;2.27;100.00
70971;BME280;58632;51.718;19.446;2023-02-11T11:40:45;100117.83;;;2.26;100.00
70971;BME280;58632;51.718;19.446;2023-02-11T11:43:31;100091.76;;;2.31;100.00
70971;BME280;58632;51.718;19.446;2023-02-11T11:45:57;100115.41;;;2.35;100.00
70971;BME280;58632;51.718;19.446;2023-02-11T11:48:39;100111.45;;;2.36;100.00
70971;BME280;58632;51.718;19.446;2023-02-11T11:51:10;100124.27;;;2.33;100.00
70971;BME280;58632;51.718;19.446;2023-02-11T11:56:27;100117.45;;;2.40;100.00
70971;BME280;58632;51.718;19.446;2023-02-11T11:58:54;100141.11;;;2.46;100.00
70971;BME280;58632;51.718;19.446;2023-02-11T12:14:41;100206.30;;;2.44;100.00
70971;BME280;58632;51.718;19.446;2023-02-11T12:25:49;100236.28;;;2.43;100.00
70971;BME280;58632;51.718;19.446;2023-02-11T12:40:49;100199.85;;;2.71;100.00
70971;BME280;58632;51.718;19.446;2023-02-11T12:43:26;100194.37;;;2.77;100.00
70971;BME280;58632;51.718;19.446;2023-02-11T12:59:25;100176.43;;;3.07;100.00
70971;BME280;58632;51.718;19.446;2023-02-11T13:01:53;100173.61;;;3.07;100.00
70971;BME280;58632;51.718;19.446;2023-02-11T13:04:39;100166.03;;;3.07;100.00
70971;BME280;58632;51.718;19.446;2023-02-11T13:07:16;100160.95;;;3.09;100.00
70971;BME280;58632;51.718;19.446;2023-02-11T13:10:04;100169.32;;;3.13;100.00
70971;BME280;58632;51.718;19.446;2023-02-11T13:12:35;100174.90;;;3.15;100.00
70971;BME280;58632;51.718;19.446;2023-02-11T13:15:19;100174.15;;;3.15;100.00
70971;BME280;58632;51.718;19.446;2023-02-11T13:18:11;100170.41;;;3.17;100.00
70971;BME280;58632;51.718;19.446;2023-02-11T13:28:31;100177.52;;;3.27;100.00
70971;BME280;58632;51.718;19.446;2023-02-11T13:31:00;100183.80;;;3.31;100.00
70971;BME280;58632;51.718;19.446;2023-02-11T13:33:31;100182.78;;;3.32;100.00
70971;BME280;58632;51.718;19.446;2023-02-11T13:38:26;100180.13;;;3.32;100.00
70971;BME280;58632;51.718;19.446;2023-02-11T13:41:00;100170.29;;;3.34;100.00
70971;BME280;58632;51.718;19.446;2023-02-11T13:43:27;100162.80;;;3.33;100.00
70971;BME280;58632;51.718;19.446;2023-02-11T13:46:01;100171.92;;;3.35;100.00
70971;BME280;58632;51.718;19.446;2023-02-11T13:48:28;100175.81;;;3.37;100.00
70971;BME280;58632;51.718;19.446;2023-02-11T13:51:04;100171.48;;;3.39;100.00
70971;BME280;58632;51.718;19.446;2023-02-11T13:53:42;100170.57;;;3.40;100.00
70971;BME280;58632;51.718;19.446;2023-02-11T13:56:10;100167.59;;;3.39;100.00
70971;BME280;58632;51.718;19.446;2023-02-11T13:58:36;100163.27;;;3.38;100.00
70971;BME280;58632;51.718;19.446;2023-02-11T14:01:04;100159.91;;;3.40;100.00
70971;BME280;58632;51.718;19.446;2023-02-11T14:03:31;100158.29;;;3.40;100.00
70971;BME280;58632;51.718;19.446;2023-02-11T14:09:07;100159.61;;;3.33;100.00
70971;BME280;58632;51.718;19.446;2023-02-11T14:17:41;100158.21;;;3.35;100.00
70971;BME280;58632;51.718;19.446;2023-02-11T14:26:58;100168.73;;;3.35;100.00
70971;BME280;58632;51.718;19.446;2023-02-11T14:42:21;100181.98;;;3.36;100.00
70971;BME280;58632;51.718;19.446;2023-02-11T14:44:49;100185.08;;;3.38;100.00
70971;BME280;58632;51.718;19.446;2023-02-11T14:47:17;100188.08;;;3.41;100.00
70971;BME280;58632;51.718;19.446;2023-02-11T14:49:43;100194.67;;;3.43;100.00
70971;BME280;58632;51.718;19.446;2023-02-11T14:52:18;100201.56;;;3.45;100.00
70971;BME280;58632;51.718;19.446;2023-02-11T14:54:47;100207.52;;;3.44;100.00
70971;BME280;58632;51.718;19.446;2023-02-11T14:57:15;100194.14;;;3.44;100.00
70971;BME280;58632;51.718;19.446;2023-02-11T14:59:57;100200.30;;;3.42;100.00